Time;durP1;ratioP1;P1;durP2;ratioP2;P2;SDS_P1;SDS_P2;PMS_P1;PMS_P2;Temp;Humidity;BMP_temperature;BMP_pressure;BME280_temperature;BME280_humidity;BME280_pressure;Samples;Min_cycle;Max_cycle;Signal;HPM_P1;HPM_P2
2022/01/22 00:00:48;;;;;;;6.38;3.70;;;5.80;99.90;;;;;;5090264;28;20103;-46
2022/01/22 00:03:14;;;;;;;6.30;3.88;;;5.80;99.90;;;;;;5090039;28;20024;-47
2022/01/22 00:05:40;;;;;;;5.38;3.70;;;5.90;99.90;;;;;;5089004;28;20087;-46
2022/01/22 00:08:06;;;;;;;5.55;3.42;;;5.90;99.90;;;;;;5089701;28;20024;-46
2022/01/22 00:10:32;;;;;;;5.07;3.50;;;5.90;99.90;;;;;;5089882;28;20017;-46
2022/01/22 00:15:28;;;;;;;7.03;3.50;;;5.90;99.90;;;;;;5090303;28;20031;-47
2022/01/22 00:17:54;;;;;;;5.25;3.42;;;5.90;99.90;;;;;;5089272;28;20020;-46
2022/01/22 00:20:24;;;;;;;5.10;3.17;;;5.90;99.90;;;;;;5087660;28;20178;-46
2022/01/22 00:22:51;;;;;;;6.32;3.83;;;5.90;99.90;;;;;;5081401;28;20481;-46
2022/01/22 00:25:18;;;;;;;7.47;3.67;;;5.90;99.90;;;;;;5089874;28;20115;-46
2022/01/22 00:27:45;;;;;;;5.10;3.47;;;5.90;99.90;;;;;;5089090;28;20074;-47
2022/01/22 00:30:14;;;;;;;6.50;4.30;;;5.90;99.90;;;;;;5089755;28;20404;-47
2022/01/22 00:32:40;;;;;;;5.78;3.75;;;5.90;99.90;;;;;;5089765;28;20020;-46
2022/01/22 00:35:06;;;;;;;5.80;3.15;;;5.90;99.90;;;;;;5089437;28;20097;-45
2022/01/22 00:37:33;;;;;;;4.78;2.80;;;5.90;99.90;;;;;;5089118;28;20305;-47
2022/01/22 00:39:59;;;;;;;6.35;3.45;;;6.00;99.90;;;;;;5088112;28;20111;-46
2022/01/22 00:42:25;;;;;;;5.53;3.63;;;6.00;99.90;;;;;;5089585;28;20123;-45
2022/01/22 00:44:51;;;;;;;6.05;3.97;;;6.00;99.90;;;;;;5088068;28;20035;-46
2022/01/22 00:47:18;;;;;;;5.10;3.25;;;6.00;99.90;;;;;;5088756;28;20091;-47
2022/01/22 00:49:44;;;;;;;5.13;3.22;;;5.90;99.90;;;;;;5089189;28;20085;-47
2022/01/22 00:52:10;;;;;;;7.78;3.47;;;5.90;99.90;;;;;;5079840;28;20029;-46
2022/01/22 00:54:35;;;;;;;5.22;3.30;;;6.00;99.90;;;;;;5089399;28;20027;-49
2022/01/22 00:57:01;;;;;;;6.18;3.65;;;6.00;99.90;;;;;;5089159;28;20024;-47
2022/01/22 00:59:26;;;;;;;5.85;3.50;;;5.90;99.90;;;;;;5088832;28;20028;-47
2022/01/22 01:01:52;;;;;;;6.53;3.67;;;6.00;99.90;;;;;;5089174;28;20032;-49
2022/01/22 01:04:18;;;;;;;7.97;3.60;;;6.00;99.90;;;;;;5089142;28;20398;-47
2022/01/22 01:06:43;;;;;;;6.55;3.67;;;6.00;99.90;;;;;;5088884;28;20043;-47
2022/01/22 01:09:11;;;;;;;5.95;3.95;;;6.00;99.90;;;;;;5088302;28;20028;-50
2022/01/22 01:11:54;;;;;;;5.55;3.50;;;6.00;99.90;;;;;;5088861;28;20051;-47
2022/01/22 01:17:35;;;;;;;5.80;3.80;;;6.00;99.90;;;;;;5087352;28;20032;-47
2022/01/22 01:32:11;;;;;;;7.18;4.55;;;6.00;99.90;;;;;;5088077;28;20055;-49
2022/01/22 01:33:59;;;;;;;8.65;4.28;;;6.00;99.90;;;;;;5088906;28;20031;-49
2022/01/22 01:36:25;;;;;;;7.68;4.75;;;6.00;99.90;;;;;;5088515;28;20027;-49
2022/01/22 01:38:55;;;;;;;8.43;4.53;;;6.00;99.90;;;;;;5087991;28;20107;-47
2022/01/22 01:41:33;;;;;;;9.00;4.43;;;6.00;99.90;;;;;;5088740;28;20084;-46
2022/01/22 01:43:59;;;;;;;6.47;4.18;;;6.00;99.90;;;;;;5088780;28;20060;-47
2022/01/22 01:46:29;;;;;;;7.68;4.65;;;6.10;99.90;;;;;;5088629;28;20055;-47
2022/01/22 01:48:54;;;;;;;10.15;5.57;;;6.10;99.90;;;;;;5087966;28;20035;-47
2022/01/22 01:51:22;;;;;;;10.15;5.38;;;6.00;99.90;;;;;;5083974;28;20398;-47
2022/01/22 01:53:59;;;;;;;9.65;5.40;;;6.10;99.90;;;;;;5083141;28;20020;-48
2022/01/22 01:59:13;;;;;;;8.38;4.75;;;6.10;99.90;;;;;;5087664;28;20081;-48
2022/01/22 02:01:39;;;;;;;8.07;5.22;;;6.10;99.90;;;;;;5088521;28;20035;-49
2022/01/22 02:04:05;;;;;;;9.80;5.30;;;6.10;99.90;;;;;;5088643;28;20155;-49
2022/01/22 02:06:31;;;;;;;9.15;5.13;;;6.10;99.90;;;;;;5088111;28;20088;-50
2022/01/22 02:08:56;;;;;;;8.57;4.30;;;6.10;99.90;;;;;;5087697;28;20032;-47
2022/01/22 02:11:25;;;;;;;10.82;4.47;;;6.00;99.90;;;;;;5088368;28;20032;-46
2022/01/22 02:14:07;;;;;;;7.70;4.55;;;6.10;99.90;;;;;;5088310;28;20224;-46
2022/01/22 02:24:54;;;;;;;7.03;4.07;;;6.10;99.90;;;;;;5088563;28;20101;-48
2022/01/22 02:27:20;;;;;;;9.82;3.97;;;6.10;99.90;;;;;;5087593;28;20503;-47
2022/01/22 02:29:46;;;;;;;8.98;4.15;;;6.00;99.90;;;;;;5090700;28;20051;-47
2022/01/22 02:32:56;;;;;;;9.98;4.13;;;6.00;99.90;;;;;;5091978;28;20099;-47
2022/01/22 02:35:29;;;;;;;7.32;3.92;;;6.10;99.90;;;;;;5091667;28;20020;-47
2022/01/22 02:38:01;;;;;;;7.93;3.83;;;6.00;99.90;;;;;;5091181;28;20051;-47
2022/01/22 02:40:32;;;;;;;8.45;3.70;;;6.00;99.90;;;;;;5091969;28;20020;-47
2022/01/22 02:42:59;;;;;;;4.93;2.60;;;6.00;99.90;;;;;;5091958;28;20016;-47
2022/01/22 02:45:25;;;;;;;7.78;3.35;;;6.00;99.90;;;;;;5091908;28;20074;-50
2022/01/22 02:47:51;;;;;;;7.65;4.43;;;6.10;99.90;;;;;;5091047;28;20036;-47
2022/01/22 02:50:18;;;;;;;6.68;3.75;;;6.00;99.90;;;;;;5089803;28;20054;-47
2022/01/22 02:52:44;;;;;;;4.80;3.15;;;6.10;99.90;;;;;;5082963;28;20024;-47
2022/01/22 02:55:12;;;;;;;6.80;3.78;;;6.00;99.90;;;;;;5091559;28;20024;-47
2022/01/22 02:57:38;;;;;;;6.10;2.92;;;6.00;99.90;;;;;;5090976;28;20028;-48
2022/01/22 03:00:11;;;;;;;6.78;3.45;;;6.00;99.90;;;;;;5091400;28;20278;-48
2022/01/22 03:02:37;;;;;;;6.65;3.55;;;6.10;99.90;;;;;;5091740;28;20028;-49
2022/01/22 03:05:04;;;;;;;6.32;3.70;;;6.00;99.90;;;;;;5090291;28;20036;-48
2022/01/22 03:07:29;;;;;;;6.18;3.20;;;6.00;99.90;;;;;;5089222;28;20481;-50
2022/01/22 03:10:02;;;;;;;6.00;3.47;;;6.10;99.90;;;;;;5091703;28;20035;-47
2022/01/22 03:15:31;;;;;;;5.68;2.90;;;6.10;99.90;;;;;;5091393;28;20024;-47
2022/01/22 03:17:53;;;;;;;6.70;3.60;;;6.00;99.90;;;;;;5090393;28;20024;-47
2022/01/22 03:27:15;;;;;;;5.80;3.22;;;6.10;99.90;;;;;;5080602;28;20086;-49
2022/01/22 03:28:52;;;;;;;6.38;3.67;;;6.00;99.90;;;;;;5090236;28;20078;-47
2022/01/22 03:31:17;;;;;;;7.15;3.45;;;6.10;99.90;;;;;;5091249;28;20072;-47
2022/01/22 03:33:43;;;;;;;7.65;3.92;;;6.10;99.90;;;;;;5090890;28;20016;-47
2022/01/22 03:36:09;;;;;;;6.85;4.00;;;6.10;99.90;;;;;;5090683;28;20465;-47
2022/01/22 03:38:34;;;;;;;8.10;3.42;;;6.10;99.90;;;;;;5090247;28;20473;-47
2022/01/22 03:41:01;;;;;;;8.70;3.85;;;6.10;99.90;;;;;;5090045;28;20028;-47
2022/01/22 03:43:27;;;;;;;7.75;3.63;;;6.10;99.90;;;;;;5090914;28;20020;-48
2022/01/22 03:45:52;;;;;;;9.75;3.83;;;6.00;99.90;;;;;;5090606;28;20396;-49
2022/01/22 03:48:18;;;;;;;7.35;3.75;;;6.10;99.90;;;;;;5089899;28;20474;-47
2022/01/22 03:50:43;;;;;;;6.85;3.17;;;6.10;99.90;;;;;;5082942;28;20028;-49
2022/01/22 03:53:09;;;;;;;7.95;3.75;;;6.00;99.90;;;;;;5080873;28;20111;-47
2022/01/22 03:56:03;;;;;;;5.85;3.60;;;6.00;99.90;;;;;;5090420;28;20024;-48
2022/01/22 03:58:20;;;;;;;8.15;4.03;;;6.00;99.90;;;;;;5089325;28;20044;-50
2022/01/22 04:00:47;;;;;;;8.27;3.63;;;6.10;99.90;;;;;;5090317;28;20500;-50
2022/01/22 04:03:29;;;;;;;9.30;4.30;;;6.10;99.90;;;;;;5086379;28;20024;-47
2022/01/22 04:06:45;;;;;;;10.30;4.30;;;6.10;99.90;;;;;;5058296;28;20528;-48
2022/01/22 04:09:04;;;;;;;7.00;3.42;;;6.00;99.90;;;;;;5049079;28;20496;-48
2022/01/22 04:11:31;;;;;;;7.82;3.70;;;6.10;99.90;;;;;;5050076;28;20021;-48
2022/01/22 04:14:01;;;;;;;9.32;4.15;;;6.00;99.90;;;;;;5058984;28;20028;-47
2022/01/22 04:16:28;;;;;;;9.68;4.13;;;6.00;99.90;;;;;;5069835;28;20033;-47
2022/01/22 04:27:14;;;;;;;6.63;3.05;;;6.00;99.90;;;;;;5090108;28;20130;-47
2022/01/22 04:29:40;;;;;;;10.23;3.80;;;6.00;99.90;;;;;;5089455;28;20035;-48
2022/01/22 04:32:06;;;;;;;11.68;4.30;;;6.00;99.90;;;;;;5089898;28;20032;-48
2022/01/22 04:34:32;;;;;;;8.65;3.22;;;6.00;99.90;;;;;;5089594;28;20021;-48
2022/01/22 04:36:58;;;;;;;11.10;4.18;;;6.00;99.90;;;;;;5087884;28;20046;-47
2022/01/22 04:39:25;;;;;;;9.30;3.80;;;6.00;99.90;;;;;;5088995;28;20032;-48
2022/01/22 04:41:52;;;;;;;11.15;3.17;;;6.00;99.90;;;;;;5089578;28;20032;-51
2022/01/22 04:44:18;;;;;;;11.15;3.45;;;5.90;99.90;;;;;;5089631;28;20089;-47
2022/01/22 04:49:15;;;;;;;7.82;3.25;;;5.90;99.90;;;;;;5088973;28;20387;-48
2022/01/22 04:57:08;;;;;;;7.40;2.63;;;5.80;99.90;;;;;;5089179;28;20504;-46
2022/01/22 04:59:34;;;;;;;12.07;2.90;;;5.80;99.90;;;;;;5088728;28;20032;-50
2022/01/22 05:01:59;;;;;;;9.60;2.92;;;5.80;99.90;;;;;;5087915;28;20020;-46
2022/01/22 05:04:25;;;;;;;8.18;2.67;;;5.80;99.90;;;;;;5089243;28;20024;-47
2022/01/22 05:06:51;;;;;;;13.65;3.33;;;5.80;99.90;;;;;;5088789;28;20043;-48
2022/01/22 05:09:16;;;;;;;8.10;2.58;;;5.80;99.90;;;;;;5087024;28;20016;-47
2022/01/22 05:11:42;;;;;;;11.45;3.30;;;5.80;99.90;;;;;;5087725;28;20024;-47
2022/01/22 05:14:07;;;;;;;9.63;3.53;;;5.70;99.90;;;;;;5089127;28;20289;-47
2022/01/22 05:16:33;;;;;;;9.77;4.07;;;5.80;99.90;;;;;;5088922;28;20034;-47
2022/01/22 05:19:09;;;;;;;9.57;3.05;;;5.70;99.90;;;;;;5088284;28;20034;-48
2022/01/22 05:21:37;;;;;;;17.50;3.60;;;5.70;99.90;;;;;;5079319;28;20024;-47
2022/01/22 05:24:08;;;;;;;19.02;5.13;;;5.70;99.90;;;;;;5080347;28;20066;-47
2022/01/22 05:37:33;;;;;;;19.13;4.78;;;5.70;99.90;;;;;;5075751;28;20497;-47
2022/01/22 05:39:59;;;;;;;19.85;5.68;;;5.70;99.90;;;;;;5048551;28;20033;-46
2022/01/22 05:42:24;;;;;;;20.25;5.50;;;5.70;99.90;;;;;;5048687;28;20577;-48
2022/01/22 05:44:50;;;;;;;15.02;5.03;;;5.70;99.90;;;;;;5048509;28;20028;-47
2022/01/22 05:47:21;;;;;;;17.67;4.95;;;5.70;99.90;;;;;;5047596;28;20043;-47
2022/01/22 05:49:47;;;;;;;14.30;4.35;;;5.70;99.90;;;;;;5047680;28;20439;-47
2022/01/22 05:52:15;;;;;;;18.65;5.50;;;5.70;99.90;;;;;;5056704;28;20110;-48
2022/01/22 05:54:55;;;;;;;18.83;4.90;;;5.70;99.90;;;;;;5072909;28;20059;-48
2022/01/22 06:00:06;;;;;;;28.02;5.82;;;5.70;99.90;;;;;;5066250;28;20116;-47
2022/01/22 06:02:32;;;;;;;20.08;5.13;;;5.70;99.90;;;;;;5084526;28;20504;-46
2022/01/22 06:04:57;;;;;;;17.17;5.05;;;5.70;99.90;;;;;;5073804;28;20016;-47
2022/01/22 06:07:23;;;;;;;14.93;5.57;;;5.70;99.90;;;;;;5084405;28;20021;-46
2022/01/22 06:15:15;;;;;;;18.90;5.13;;;5.70;99.90;;;;;;5070897;28;20371;-47
2022/01/22 06:17:41;;;;;;;26.83;6.35;;;5.80;99.90;;;;;;5082044;28;20073;-46
2022/01/22 06:20:07;;;;;;;22.30;5.55;;;5.70;99.90;;;;;;5083323;28;20032;-46
2022/01/22 06:22:33;;;;;;;17.90;5.47;;;5.70;99.90;;;;;;5075787;28;20032;-47
2022/01/22 06:24:59;;;;;;;15.38;5.15;;;5.80;99.90;;;;;;5085865;28;20521;-46
2022/01/22 06:27:24;;;;;;;20.48;5.65;;;5.80;99.90;;;;;;5078244;28;20028;-47
2022/01/22 06:29:50;;;;;;;18.30;5.18;;;5.80;99.90;;;;;;5081406;28;20399;-47
2022/01/22 06:32:15;;;;;;;21.33;5.65;;;5.80;99.90;;;;;;5085743;28;20270;-47
2022/01/22 06:34:41;;;;;;;12.65;4.82;;;5.70;99.90;;;;;;5075273;28;20533;-48
2022/01/22 06:37:06;;;;;;;18.08;6.18;;;5.80;99.90;;;;;;5087394;28;20058;-48
2022/01/22 06:39:41;;;;;;;20.67;5.05;;;5.70;99.90;;;;;;5072464;28;20095;-49
2022/01/22 06:42:07;;;;;;;19.52;5.80;;;5.70;99.90;;;;;;5075331;28;20474;-48
2022/01/22 06:44:34;;;;;;;16.65;5.30;;;5.80;99.90;;;;;;5076379;28;20032;-49
2022/01/22 06:47:00;;;;;;;19.27;5.78;;;5.70;99.90;;;;;;5078504;28;20379;-47
2022/01/22 06:49:26;;;;;;;27.42;6.82;;;5.80;99.90;;;;;;5079788;28;20040;-46
2022/01/22 06:51:54;;;;;;;18.35;5.05;;;5.80;99.90;;;;;;5079375;28;20443;-50
2022/01/22 06:54:21;;;;;;;18.45;5.28;;;5.80;99.90;;;;;;5077225;28;20100;-47
2022/01/22 06:56:46;;;;;;;13.88;4.57;;;5.80;99.90;;;;;;5085711;28;20126;-48
2022/01/22 06:59:13;;;;;;;16.75;5.30;;;5.80;99.90;;;;;;5079455;28;20032;-48
2022/01/22 07:01:39;;;;;;;18.38;4.57;;;5.70;99.90;;;;;;5080280;28;20056;-46
2022/01/22 07:04:07;;;;;;;17.75;4.95;;;5.70;99.90;;;;;;5072948;28;20503;-45
2022/01/22 07:06:32;;;;;;;19.85;4.47;;;5.70;99.90;;;;;;5066402;28;20082;-48
2022/01/22 07:08:58;;;;;;;15.85;4.97;;;5.80;99.90;;;;;;5049290;28;20033;-46
2022/01/22 07:11:24;;;;;;;14.48;4.97;;;5.80;99.90;;;;;;5075142;28;20016;-48
2022/01/22 07:13:50;;;;;;;16.92;5.60;;;5.70;99.90;;;;;;5089833;28;20027;-46
2022/01/22 07:16:16;;;;;;;16.60;4.93;;;5.70;99.90;;;;;;5091425;28;20050;-48
2022/01/22 07:18:42;;;;;;;23.27;6.28;;;5.80;99.90;;;;;;5090810;28;20062;-48
2022/01/22 07:21:17;;;;;;;22.02;5.82;;;5.70;99.90;;;;;;5083847;28;20017;-47
2022/01/22 07:26:15;;;;;;;17.23;6.55;;;5.70;99.90;;;;;;5053612;28;20085;-47
2022/01/22 07:28:41;;;;;;;18.27;6.78;;;5.70;99.90;;;;;;5069222;28;20032;-46
2022/01/22 07:31:08;;;;;;;14.05;5.32;;;5.80;99.90;;;;;;5092311;28;20435;-47
2022/01/22 07:33:34;;;;;;;20.63;6.07;;;5.80;99.90;;;;;;5092065;28;20031;-50
2022/01/22 07:36:00;;;;;;;18.38;5.80;;;5.70;99.90;;;;;;5091934;28;20020;-48
2022/01/22 07:38:26;;;;;;;17.77;5.35;;;5.70;99.90;;;;;;5090427;28;20458;-49
2022/01/22 07:40:52;;;;;;;22.33;5.97;;;5.80;99.90;;;;;;5081656;28;20043;-47
2022/01/22 07:43:17;;;;;;;22.40;5.93;;;5.80;99.90;;;;;;5091957;28;20094;-49
2022/01/22 07:45:43;;;;;;;20.95;6.15;;;5.80;99.90;;;;;;5091618;28;20020;-47
2022/01/22 07:48:09;;;;;;;24.30;5.72;;;5.80;99.90;;;;;;5090858;28;20024;-48
2022/01/22 07:50:35;;;;;;;30.13;7.10;;;5.80;99.90;;;;;;5087751;28;20024;-51
2022/01/22 07:53:02;;;;;;;20.92;6.07;;;5.80;99.90;;;;;;5080627;28;20059;-50
2022/01/22 07:55:30;;;;;;;20.25;6.03;;;5.80;99.90;;;;;;5083763;28;20035;-49
2022/01/22 07:57:56;;;;;;;23.80;6.72;;;5.80;99.90;;;;;;5070660;28;20024;-48
2022/01/22 08:00:22;;;;;;;20.98;6.38;;;5.80;99.90;;;;;;5069801;28;20025;-48
2022/01/22 08:02:47;;;;;;;21.58;7.03;;;5.80;99.90;;;;;;5068452;28;20016;-47
2022/01/22 08:05:13;;;;;;;20.35;6.80;;;5.80;99.90;;;;;;5069821;28;20029;-51
2022/01/22 08:07:43;;;;;;;28.13;7.50;;;5.80;99.90;;;;;;5065996;28;20029;-47
2022/01/22 08:10:10;;;;;;;21.45;6.68;;;5.90;99.90;;;;;;5056001;28;20071;-47
2022/01/22 08:12:37;;;;;;;24.38;6.38;;;5.80;99.90;;;;;;5053199;28;20044;-48
2022/01/22 08:15:06;;;;;;;25.05;7.20;;;5.90;99.90;;;;;;5066938;28;20021;-47
2022/01/22 08:17:32;;;;;;;23.40;6.78;;;5.90;99.90;;;;;;5068832;28;20032;-48
2022/01/22 08:19:57;;;;;;;21.80;7.40;;;5.90;99.90;;;;;;5069469;28;20032;-48
2022/01/22 08:22:23;;;;;;;32.67;8.10;;;5.90;99.90;;;;;;5076711;28;20021;-47
2022/01/22 08:24:52;;;;;;;19.95;6.43;;;5.90;99.90;;;;;;5085406;28;20039;-49
2022/01/22 08:29:43;;;;;;;19.75;6.40;;;5.90;99.90;;;;;;5089880;28;20024;-48
2022/01/22 08:32:55;;;;;;;17.83;6.35;;;5.90;99.90;;;;;;5089847;28;20386;-46
2022/01/22 08:37:39;;;;;;;21.23;6.65;;;6.00;99.90;;;;;;5088817;28;20504;-47
2022/01/22 08:40:06;;;;;;;17.60;6.47;;;6.00;99.90;;;;;;5088112;28;20028;-48
2022/01/22 08:42:32;;;;;;;13.68;5.88;;;6.00;99.90;;;;;;5089385;28;20039;-48
2022/01/22 08:44:57;;;;;;;23.98;6.35;;;6.00;99.90;;;;;;5089532;28;20024;-47
2022/01/22 08:47:23;;;;;;;19.25;6.32;;;6.10;99.90;;;;;;5088604;28;20166;-47
2022/01/22 08:49:48;;;;;;;21.25;5.95;;;6.10;99.90;;;;;;5088445;28;20024;-49
2022/01/22 08:52:16;;;;;;;20.17;6.38;;;6.10;99.90;;;;;;5079313;28;20075;-47
2022/01/22 08:54:43;;;;;;;18.38;6.13;;;6.20;99.90;;;;;;5083138;28;20031;-47
2022/01/22 08:57:09;;;;;;;18.10;6.47;;;6.20;99.90;;;;;;5088161;28;20019;-48
2022/01/22 08:59:34;;;;;;;18.77;6.93;;;6.20;99.90;;;;;;5087932;28;20024;-47
2022/01/22 09:02:00;;;;;;;21.00;6.15;;;6.30;99.90;;;;;;5088320;28;20056;-47
2022/01/22 09:04:26;;;;;;;22.52;5.97;;;6.30;99.90;;;;;;5088133;28;20035;-47
2022/01/22 09:06:52;;;;;;;18.63;6.22;;;6.30;99.90;;;;;;5088117;28;20019;-48
2022/01/22 09:09:18;;;;;;;17.55;5.60;;;6.30;99.90;;;;;;5087519;28;20035;-47
2022/01/22 09:11:46;;;;;;;17.23;5.60;;;6.30;99.90;;;;;;5086708;28;20063;-47
2022/01/22 09:14:14;;;;;;;21.58;5.78;;;6.30;99.90;;;;;;5088093;28;20421;-47
2022/01/22 09:16:41;;;;;;;12.95;5.65;;;6.30;99.90;;;;;;5087957;28;20072;-50
2022/01/22 09:19:10;;;;;;;23.13;6.72;;;6.20;99.90;;;;;;5087744;28;20032;-47
2022/01/22 09:21:37;;;;;;;14.95;5.35;;;6.20;99.90;;;;;;5079547;28;20099;-47
2022/01/22 09:24:04;;;;;;;21.52;5.95;;;6.20;99.90;;;;;;5079628;28;20031;-48
2022/01/22 09:26:30;;;;;;;13.25;5.30;;;6.30;99.90;;;;;;5087882;28;20390;-47
2022/01/22 09:28:58;;;;;;;17.40;5.80;;;6.30;99.90;;;;;;5087277;28;20069;-48
2022/01/22 09:31:25;;;;;;;18.30;5.22;;;6.30;99.90;;;;;;5087705;28;20016;-47
2022/01/22 09:33:50;;;;;;;20.42;6.00;;;6.30;99.90;;;;;;5087677;28;20032;-47
2022/01/22 09:36:16;;;;;;;18.95;6.15;;;6.20;99.90;;;;;;5087482;28;20027;-47
2022/01/22 09:38:42;;;;;;;14.20;4.97;;;6.30;99.90;;;;;;5086042;28;20043;-47
2022/01/22 09:41:07;;;;;;;20.88;5.80;;;6.30;99.90;;;;;;5087768;28;20034;-47
2022/01/22 09:43:33;;;;;;;20.17;5.70;;;6.30;99.90;;;;;;5087733;28;20024;-47
2022/01/22 09:45:59;;;;;;;21.35;6.32;;;6.30;99.90;;;;;;5087660;28;20288;-50
2022/01/22 09:48:24;;;;;;;19.65;5.40;;;6.40;99.90;;;;;;5042366;28;1278224;-48
2022/01/22 09:50:50;;;;;;;19.30;5.80;;;6.40;99.90;;;;;;5083204;28;20025;-49
2022/01/22 09:53:15;;;;;;;20.15;6.32;;;6.40;99.90;;;;;;5078270;28;20047;-47
2022/01/22 09:55:42;;;;;;;15.80;5.10;;;6.40;99.90;;;;;;5088638;28;20216;-49
2022/01/22 09:58:08;;;;;;;14.20;5.03;;;6.40;99.90;;;;;;5087793;28;20493;-48
2022/01/22 10:00:33;;;;;;;15.85;5.07;;;6.50;99.90;;;;;;5088288;28;20119;-48
2022/01/22 10:02:59;;;;;;;14.73;5.13;;;6.40;99.90;;;;;;5086926;28;20412;-50
2022/01/22 10:05:37;;;;;;;14.55;4.88;;;6.50;99.90;;;;;;5088427;28;20051;-49
2022/01/22 10:08:35;;;;;;;13.55;4.50;;;6.50;99.90;;;;;;5087522;28;20504;-47
2022/01/22 10:11:02;;;;;;;12.73;4.60;;;6.50;99.90;;;;;;5088649;28;20031;-46
2022/01/22 10:13:44;;;;;;;13.60;4.32;;;6.40;99.90;;;;;;5087993;28;20029;-49
2022/01/22 10:16:28;;;;;;;12.68;4.45;;;6.50;99.90;;;;;;5088263;28;20381;-47
2022/01/22 10:19:13;;;;;;;7.75;3.83;;;6.50;99.90;;;;;;5087569;28;20066;-47
2022/01/22 10:21:43;;;;;;;10.32;4.32;;;6.40;99.90;;;;;;5082377;28;20501;-47
2022/01/22 10:24:29;;;;;;;11.70;4.03;;;6.40;99.90;;;;;;5079742;28;20028;-46
2022/01/22 10:27:35;;;;;;;12.05;4.50;;;6.40;99.90;;;;;;5088149;28;20028;-48
2022/01/22 10:30:12;;;;;;;6.65;3.45;;;6.40;99.90;;;;;;5087890;28;20024;-47
2022/01/22 10:33:05;;;;;;;11.52;4.35;;;6.40;99.90;;;;;;5088143;28;20105;-47
2022/01/22 10:35:32;;;;;;;7.68;3.88;;;6.50;99.90;;;;;;5088037;28;20151;-48
2022/01/22 10:38:01;;;;;;;10.65;3.90;;;6.40;99.90;;;;;;5086984;28;20107;-47
2022/01/22 10:40:31;;;;;;;7.30;3.53;;;6.50;99.90;;;;;;5087563;28;20028;-47
2022/01/22 10:43:31;;;;;;;14.63;4.18;;;6.40;99.90;;;;;;5088222;28;20504;-47
2022/01/22 10:46:20;;;;;;;10.20;4.20;;;6.50;99.90;;;;;;5087728;28;20093;-47
2022/01/22 10:49:09;;;;;;;9.52;3.47;;;6.40;99.90;;;;;;5087615;28;20024;-48
2022/01/22 10:51:57;;;;;;;6.38;3.42;;;6.40;99.90;;;;;;5084109;28;20027;-48
2022/01/22 10:54:25;;;;;;;5.47;2.97;;;6.40;99.90;;;;;;5074722;28;20028;-47
2022/01/22 10:56:52;;;;;;;7.85;4.10;;;6.50;99.90;;;;;;5090991;28;20028;-48
2022/01/22 10:59:20;;;;;;;6.72;2.80;;;6.50;99.90;;;;;;5090891;28;20738;-48
2022/01/22 11:02:01;;;;;;;5.45;2.33;;;6.50;99.90;;;;;;5090995;28;20054;-46
2022/01/22 11:04:29;;;;;;;3.50;2.42;;;6.50;99.90;;;;;;5091237;28;20066;-48
2022/01/22 11:06:57;;;;;;;2.90;2.03;;;6.50;99.90;;;;;;5091279;28;20386;-47
2022/01/22 11:09:24;;;;;;;7.25;3.13;;;6.50;99.90;;;;;;5090799;28;20553;-47
2022/01/22 11:11:51;;;;;;;4.97;2.45;;;6.40;99.90;;;;;;5091102;28;20032;-48
2022/01/22 11:14:17;;;;;;;4.65;2.50;;;6.50;99.90;;;;;;5090859;28;20486;-50
2022/01/22 11:16:46;;;;;;;12.70;2.83;;;6.50;99.90;;;;;;5090962;28;20103;-47
2022/01/22 11:19:15;;;;;;;4.78;2.50;;;6.50;99.90;;;;;;5090122;28;20093;-47
2022/01/22 11:21:46;;;;;;;2.63;2.28;;;6.40;99.90;;;;;;5084152;28;20039;-47
2022/01/22 11:24:13;;;;;;;4.63;2.45;;;6.50;99.90;;;;;;5082120;28;20046;-47
2022/01/22 11:26:39;;;;;;;3.05;1.98;;;6.50;99.90;;;;;;5090686;28;20042;-47
2022/01/22 11:29:06;;;;;;;3.47;2.17;;;6.50;99.90;;;;;;5090016;28;20024;-47
2022/01/22 11:31:33;;;;;;;5.55;2.60;;;6.50;99.90;;;;;;5090797;28;20511;-47
2022/01/22 11:34:00;;;;;;;6.25;2.50;;;6.50;99.90;;;;;;5090561;28;20062;-48
2022/01/22 11:36:37;;;;;;;3.20;2.22;;;6.60;99.90;;;;;;5090442;28;20077;-47
2022/01/22 11:39:04;;;;;;;6.32;3.40;;;6.60;99.90;;;;;;5090068;28;20028;-48
2022/01/22 11:41:29;;;;;;;4.35;2.40;;;6.50;99.90;;;;;;5090561;28;20088;-47
2022/01/22 11:44:11;;;;;;;3.63;2.38;;;6.50;99.90;;;;;;5089073;28;20059;-47
2022/01/22 11:46:51;;;;;;;5.97;3.30;;;6.50;99.90;;;;;;5090191;28;20076;-47
2022/01/22 11:49:21;;;;;;;4.40;2.50;;;6.60;99.90;;;;;;5081169;28;20428;-46
2022/01/22 11:51:50;;;;;;;5.10;2.97;;;6.50;99.90;;;;;;5062517;28;20256;-50
2022/01/22 11:54:19;;;;;;;5.78;2.90;;;6.60;99.90;;;;;;5068694;28;20020;-46
2022/01/22 11:56:52;;;;;;;5.93;3.03;;;6.60;99.90;;;;;;5063748;28;20291;-49
2022/01/22 11:59:21;;;;;;;10.32;3.45;;;6.60;99.90;;;;;;5060870;28;20509;-45
2022/01/22 12:01:53;;;;;;;4.60;2.97;;;6.60;99.90;;;;;;5048934;28;20043;-47
2022/01/22 12:04:45;;;;;;;6.90;3.53;;;6.60;99.90;;;;;;5050151;28;20533;-48
2022/01/22 12:07:16;;;;;;;7.43;3.38;;;6.60;99.90;;;;;;5048076;28;20029;-46
2022/01/22 12:10:04;;;;;;;6.95;4.10;;;6.60;99.90;;;;;;5049613;28;20067;-47
2022/01/22 12:15:23;;;;;;;6.25;3.88;;;6.60;99.90;;;;;;5049764;28;20056;-49
2022/01/22 12:17:55;;;;;;;12.13;4.32;;;6.60;99.90;;;;;;5049084;28;20039;-46
2022/01/22 12:23:08;;;;;;;8.82;3.70;;;6.60;99.90;;;;;;5077249;28;20078;-48
2022/01/22 12:25:33;;;;;;;11.07;3.72;;;6.70;99.90;;;;;;5088202;28;20071;-47
2022/01/22 12:27:59;;;;;;;9.80;4.20;;;6.70;99.90;;;;;;5088846;28;20062;-47
2022/01/22 12:30:47;;;;;;;7.80;3.70;;;6.70;99.90;;;;;;5089298;28;20101;-50
2022/01/22 12:33:33;;;;;;;10.65;4.10;;;6.60;99.90;;;;;;5088174;28;20489;-49
2022/01/22 12:36:09;;;;;;;11.65;5.35;;;6.60;99.90;;;;;;5083536;28;20468;-46
2022/01/22 12:38:50;;;;;;;7.80;3.42;;;6.60;99.90;;;;;;5087005;28;20048;-47
2022/01/22 12:41:47;;;;;;;7.15;3.38;;;6.60;99.90;;;;;;5087457;28;20031;-48
2022/01/22 12:44:26;;;;;;;11.40;3.47;;;6.50;99.90;;;;;;5086215;28;20028;-42
2022/01/22 12:46:54;;;;;;;13.95;4.25;;;6.60;99.90;;;;;;5088260;28;20036;-42
2022/01/22 12:49:22;;;;;;;11.82;4.05;;;6.60;99.90;;;;;;5085688;28;20118;-44
2022/01/22 12:51:58;;;;;;;11.43;3.95;;;6.60;99.90;;;;;;5084751;28;20023;-44
2022/01/22 12:54:31;;;;;;;7.75;3.40;;;6.60;99.90;;;;;;5074202;28;20016;-43
2022/01/22 12:57:08;;;;;;;9.52;3.50;;;6.60;99.90;;;;;;5089028;28;20024;-44
2022/01/22 13:00:29;;;;;;;8.35;3.78;;;6.70;99.90;;;;;;5061448;28;20037;-44
2022/01/22 13:02:56;;;;;;;12.85;3.40;;;6.70;99.90;;;;;;5047547;28;20037;-43
2022/01/22 13:05:23;;;;;;;10.90;2.95;;;6.60;99.90;;;;;;5047240;28;20067;-43
2022/01/22 13:07:55;;;;;;;4.30;2.25;;;6.60;99.90;;;;;;5057422;28;20055;-44
2022/01/22 13:10:27;;;;;;;7.15;2.10;;;6.60;99.90;;;;;;5065655;28;20039;-43
2022/01/22 13:12:55;;;;;;;9.23;2.83;;;6.50;99.90;;;;;;5053270;28;20128;-44
2022/01/22 13:15:21;;;;;;;7.28;2.38;;;6.50;99.90;;;;;;5048524;28;20474;-43
2022/01/22 13:17:54;;;;;;;7.10;2.58;;;6.50;99.90;;;;;;5047916;28;20036;-44
2022/01/22 13:20:22;;;;;;;8.10;2.72;;;6.50;99.90;;;;;;5048305;28;20188;-45
2022/01/22 13:22:49;;;;;;;8.93;2.80;;;6.50;99.90;;;;;;5073095;28;20036;-44
2022/01/22 13:25:15;;;;;;;16.55;2.90;;;6.50;99.90;;;;;;5086916;28;20116;-44
2022/01/22 13:27:42;;;;;;;7.68;2.83;;;6.50;99.90;;;;;;5088081;28;20032;-45
2022/01/22 13:30:12;;;;;;;11.38;3.05;;;6.50;99.90;;;;;;5085544;28;20416;-44
2022/01/22 13:32:50;;;;;;;10.48;3.42;;;6.50;99.90;;;;;;5055537;28;20017;-45
2022/01/22 13:35:54;;;;;;;13.63;3.55;;;6.50;99.90;;;;;;5060583;28;20121;-45
2022/01/22 13:49:30;;;;;;;15.07;5.68;;;6.60;99.90;;;;;;5065409;28;20162;-46
2022/01/22 13:52:19;;;;;;;19.48;8.10;;;6.60;99.90;;;;;;5060753;28;20020;-44
2022/01/22 13:54:49;;;;;;;12.55;6.03;;;6.50;99.90;;;;;;5064788;28;20037;-46
2022/01/22 13:57:16;;;;;;;;;;;6.60;99.90;;;;;;5052298;28;20554;-45
2022/01/22 13:59:44;;;;;;;22.48;7.00;;;6.60;99.90;;;;;;5061205;28;20047;-44
2022/01/22 14:04:53;;;;;;;13.93;6.43;;;6.60;99.90;;;;;;5048479;28;20082;-44
2022/01/22 14:07:29;;;;;;;11.65;6.10;;;6.60;99.90;;;;;;5062208;28;20060;-44
2022/01/22 14:10:00;;;;;;;11.05;6.18;;;6.60;99.90;;;;;;5047897;28;20080;-45
2022/01/22 14:12:36;;;;;;;13.75;6.35;;;6.60;99.90;;;;;;5047988;28;20092;-45
2022/01/22 14:15:27;;;;;;;9.93;5.43;;;6.70;99.90;;;;;;5047861;28;20074;-45
2022/01/22 14:18:13;;;;;;;6.15;3.75;;;6.70;99.90;;;;;;5056544;28;20040;-46
2022/01/22 14:21:14;;;;;;;13.02;5.60;;;6.70;99.90;;;;;;5058008;28;20056;-45
2022/01/22 14:23:39;;;;;;;;;;;6.80;99.90;;;;;;5063515;28;20043;-44
2022/01/22 14:26:10;;;;;;;8.90;4.57;;;6.80;99.90;;;;;;5062186;28;19905;-44
2022/01/22 14:28:46;;;;;;;7.68;4.38;;;6.80;99.90;;;;;;5061377;28;20035;-44
2022/01/22 14:31:33;;;;;;;9.80;4.47;;;6.80;99.90;;;;;;5064452;28;20025;-44
2022/01/22 14:34:04;;;;;;;16.00;4.53;;;6.80;99.90;;;;;;5065918;28;20025;-46
2022/01/22 14:36:33;;;;;;;6.20;4.03;;;6.80;99.90;;;;;;5062689;28;20017;-44
2022/01/22 14:44:00;;;;;;;6.15;3.47;;;6.80;99.90;;;;;;5060630;28;20035;-44
2022/01/22 14:44:49;;;;;;;6.10;3.72;;;6.70;99.90;;;;;;5071618;28;20040;-44
2022/01/22 14:47:17;;;;;;;7.40;4.10;;;6.70;99.90;;;;;;5070846;28;20032;-46
2022/01/22 14:49:47;;;;;;;4.57;3.20;;;6.70;99.90;;;;;;5071050;28;20482;-45